Wilson Lisbon — 5BNU3 — position and weather

sailwx.info

Track history (hours):
 
Tides and Currents Weather Stations Pressure Air Temp Water Temp Dewpoint Dewpoint Depression Visibility Wind Speed Wind Dir Waves Ship Positions

Wilson Lisbon

Last reported at 2014-Sep-16 08:33 UTC. Time now 2014-Sep-17 03:27 UTC.
Position N 59°27' E 005°14'.

Length 90 m; draft 5.4 m.

Type: Ship. MMSI: 212376000.

Date/timePositionNaut miles runAvg speedWind from/ knotsBaromVisibWave heightAir tempDewpointWater temp
2014-Sep-16 08:33N 59°27' E 005°14'1210.1
2014-Sep-16 07:19N 59°15' E 005°21'810.0
2014-Sep-16 06:33N 59°07' E 005°21'9 9.4
2014-Sep-16 05:33N 58°58' E 005°18'10 9.6
2014-Sep-16 04:34N 58°49' E 005°13'269 8.6
2014-Sep-14 21:22N 54°20' E 004°57'7 8.6
2014-Sep-14 20:33N 54°12' E 004°57'9 8.7
2014-Sep-14 19:33N 54°04' E 004°57'9 9.1
2014-Sep-14 18:31N 53°54' E 004°54'21 9.0
2014-Sep-14 16:13N 53°34' E 004°48'6 8.8
2014-Sep-14 15:33N 53°29' E 004°45'134 9.5
2014-Sep-14 01:27N 51°42' E 002°33'36 7.1
2014-Sep-13 20:25N 51°13' E 001°60'7 7.6
2014-Sep-13 19:33N 51°10' E 001°50'64 9.2
2014-Sep-13 12:31N 50°27' E 000°34'  
2014-Sep-10 18:33N 50°42' W 005°14'7 7.3
2014-Sep-10 17:33N 50°37' W 005°23'7 7.2
2014-Sep-10 16:33N 50°32' W 005°31'8 7.8
2014-Sep-10 15:33N 50°27' W 005°40'179 4.6
2014-Sep-09 00:28N 48°39' W 002°01'0 0.0
2014-Sep-07 13:06N 48°39' W 002°01'0 0.0
2014-Sep-07 10:18N 48°39' W 002°01'  
Track history (hours):
 
Tides and Currents Weather Stations Pressure Air Temp Water Temp Dewpoint Dewpoint Depression Visibility Wind Speed Wind Dir Waves Ship Positions

Wilson Lisbon

Last reported at 2014-Sep-16 08:33 UTC. Time now 2014-Sep-17 03:27 UTC.
Position N 59°27' E 005°14'.

Length 90 m; draft 5.4 m.

Type: Ship. MMSI: 212376000.

Date/timePositionNaut miles runAvg speedWind from/ knotsBaromVisibWave heightAir tempDewpointWater temp
2014-Sep-16 08:33N 59°27' E 005°14'1210.1
2014-Sep-16 07:19N 59°15' E 005°21'810.0
2014-Sep-16 06:33N 59°07' E 005°21'9 9.4
2014-Sep-16 05:33N 58°58' E 005°18'10 9.6
2014-Sep-16 04:34N 58°49' E 005°13'269 8.6
2014-Sep-14 21:22N 54°20' E 004°57'7 8.6
2014-Sep-14 20:33N 54°12' E 004°57'9 8.7
2014-Sep-14 19:33N 54°04' E 004°57'9 9.1
2014-Sep-14 18:31N 53°54' E 004°54'21 9.0
2014-Sep-14 16:13N 53°34' E 004°48'6 8.8
2014-Sep-14 15:33N 53°29' E 004°45'134 9.5
2014-Sep-14 01:27N 51°42' E 002°33'36 7.1
2014-Sep-13 20:25N 51°13' E 001°60'7 7.6
2014-Sep-13 19:33N 51°10' E 001°50'64 9.2
2014-Sep-13 12:31N 50°27' E 000°34'  
2014-Sep-10 18:33N 50°42' W 005°14'7 7.3
2014-Sep-10 17:33N 50°37' W 005°23'7 7.2
2014-Sep-10 16:33N 50°32' W 005°31'8 7.8
2014-Sep-10 15:33N 50°27' W 005°40'179 4.6
2014-Sep-09 00:28N 48°39' W 002°01'0 0.0
2014-Sep-07 13:06N 48°39' W 002°01'0 0.0
2014-Sep-07 10:18N 48°39' W 002°01'  

Dump ship's entire track history